sensor_id;sensor_type;location;lat;lon;timestamp;P1;durP1;ratioP1;P2;durP2;ratioP2
37455;SDS011;23316;50.718;7.328;2022-12-07T00:01:22;28.73;;;16.60;;
37455;SDS011;23316;50.718;7.328;2022-12-07T00:03:51;26.05;;;15.13;;
37455;SDS011;23316;50.718;7.328;2022-12-07T00:06:20;25.10;;;15.57;;
37455;SDS011;23316;50.718;7.328;2022-12-07T00:08:47;26.95;;;15.98;;
37455;SDS011;23316;50.718;7.328;2022-12-07T00:11:18;26.52;;;16.58;;
37455;SDS011;23316;50.718;7.328;2022-12-07T00:13:46;25.05;;;15.27;;
37455;SDS011;23316;50.718;7.328;2022-12-07T00:16:17;24.88;;;16.20;;
37455;SDS011;23316;50.718;7.328;2022-12-07T00:18:46;27.75;;;17.73;;
37455;SDS011;23316;50.718;7.328;2022-12-07T00:21:15;30.50;;;17.83;;
37455;SDS011;23316;50.718;7.328;2022-12-07T00:23:44;27.98;;;17.75;;
37455;SDS011;23316;50.718;7.328;2022-12-07T00:26:14;26.00;;;16.52;;
37455;SDS011;23316;50.718;7.328;2022-12-07T00:28:45;31.63;;;18.00;;
37455;SDS011;23316;50.718;7.328;2022-12-07T00:31:13;30.63;;;19.17;;
37455;SDS011;23316;50.718;7.328;2022-12-07T00:33:42;27.10;;;18.25;;
37455;SDS011;23316;50.718;7.328;2022-12-07T00:36:10;28.67;;;18.58;;
37455;SDS011;23316;50.718;7.328;2022-12-07T00:38:38;32.50;;;18.52;;
37455;SDS011;23316;50.718;7.328;2022-12-07T00:41:07;36.88;;;18.48;;
37455;SDS011;23316;50.718;7.328;2022-12-07T00:43:37;32.38;;;19.80;;
37455;SDS011;23316;50.718;7.328;2022-12-07T00:46:06;37.92;;;21.83;;
37455;SDS011;23316;50.718;7.328;2022-12-07T00:48:34;36.03;;;21.55;;
37455;SDS011;23316;50.718;7.328;2022-12-07T00:51:01;33.97;;;21.08;;
37455;SDS011;23316;50.718;7.328;2022-12-07T00:53:29;32.13;;;19.92;;
37455;SDS011;23316;50.718;7.328;2022-12-07T00:55:56;39.75;;;23.75;;
37455;SDS011;23316;50.718;7.328;2022-12-07T00:58:24;40.75;;;22.77;;
37455;SDS011;23316;50.718;7.328;2022-12-07T01:00:51;31.67;;;20.15;;
37455;SDS011;23316;50.718;7.328;2022-12-07T01:03:19;33.30;;;21.20;;
37455;SDS011;23316;50.718;7.328;2022-12-07T01:05:50;35.13;;;21.60;;
37455;SDS011;23316;50.718;7.328;2022-12-07T01:08:18;38.75;;;22.33;;
37455;SDS011;23316;50.718;7.328;2022-12-07T01:10:46;35.15;;;21.65;;
37455;SDS011;23316;50.718;7.328;2022-12-07T01:13:13;35.97;;;22.73;;
37455;SDS011;23316;50.718;7.328;2022-12-07T01:15:41;36.20;;;22.63;;
37455;SDS011;23316;50.718;7.328;2022-12-07T01:18:09;40.45;;;21.67;;
37455;SDS011;23316;50.718;7.328;2022-12-07T01:20:38;38.45;;;20.83;;
37455;SDS011;23316;50.718;7.328;2022-12-07T01:23:05;36.65;;;22.60;;
37455;SDS011;23316;50.718;7.328;2022-12-07T01:25:33;38.78;;;24.20;;
37455;SDS011;23316;50.718;7.328;2022-12-07T01:28:00;40.60;;;22.08;;
37455;SDS011;23316;50.718;7.328;2022-12-07T01:30:27;36.50;;;23.73;;
37455;SDS011;23316;50.718;7.328;2022-12-07T01:32:54;39.85;;;23.35;;
37455;SDS011;23316;50.718;7.328;2022-12-07T01:35:21;42.47;;;22.35;;
37455;SDS011;23316;50.718;7.328;2022-12-07T01:37:50;41.50;;;22.67;;
37455;SDS011;23316;50.718;7.328;2022-12-07T01:40:17;35.17;;;22.77;;
37455;SDS011;23316;50.718;7.328;2022-12-07T01:42:45;41.20;;;24.23;;
37455;SDS011;23316;50.718;7.328;2022-12-07T01:45:31;34.63;;;22.95;;
37455;SDS011;23316;50.718;7.328;2022-12-07T01:48:04;40.28;;;23.63;;
37455;SDS011;23316;50.718;7.328;2022-12-07T01:50:33;33.95;;;22.27;;
37455;SDS011;23316;50.718;7.328;2022-12-07T01:53:03;38.33;;;23.50;;
37455;SDS011;23316;50.718;7.328;2022-12-07T01:55:33;38.53;;;24.15;;
37455;SDS011;23316;50.718;7.328;2022-12-07T01:58:03;36.03;;;23.80;;
37455;SDS011;23316;50.718;7.328;2022-12-07T02:00:31;38.03;;;23.48;;
37455;SDS011;23316;50.718;7.328;2022-12-07T02:03:00;38.63;;;23.52;;
37455;SDS011;23316;50.718;7.328;2022-12-07T02:05:32;39.13;;;23.57;;
37455;SDS011;23316;50.718;7.328;2022-12-07T02:08:01;34.53;;;21.85;;
37455;SDS011;23316;50.718;7.328;2022-12-07T02:10:30;38.22;;;22.20;;
37455;SDS011;23316;50.718;7.328;2022-12-07T02:13:00;46.45;;;24.00;;
37455;SDS011;23316;50.718;7.328;2022-12-07T02:15:34;37.78;;;22.92;;
37455;SDS011;23316;50.718;7.328;2022-12-07T02:18:13;43.03;;;23.85;;
37455;SDS011;23316;50.718;7.328;2022-12-07T02:20:48;37.13;;;23.27;;
37455;SDS011;23316;50.718;7.328;2022-12-07T02:23:31;41.22;;;24.23;;
37455;SDS011;23316;50.718;7.328;2022-12-07T02:26:24;41.22;;;24.77;;
37455;SDS011;23316;50.718;7.328;2022-12-07T02:29:11;43.67;;;24.98;;
37455;SDS011;23316;50.718;7.328;2022-12-07T02:31:44;40.05;;;25.13;;
37455;SDS011;23316;50.718;7.328;2022-12-07T02:34:18;38.55;;;25.27;;
37455;SDS011;23316;50.718;7.328;2022-12-07T02:36:52;41.33;;;25.45;;
37455;SDS011;23316;50.718;7.328;2022-12-07T02:39:25;46.75;;;28.08;;
37455;SDS011;23316;50.718;7.328;2022-12-07T02:41:58;44.35;;;27.02;;
37455;SDS011;23316;50.718;7.328;2022-12-07T02:44:35;44.78;;;25.65;;
37455;SDS011;23316;50.718;7.328;2022-12-07T02:47:03;42.92;;;26.90;;
37455;SDS011;23316;50.718;7.328;2022-12-07T02:49:35;45.80;;;27.27;;
37455;SDS011;23316;50.718;7.328;2022-12-07T02:52:05;46.92;;;26.90;;
37455;SDS011;23316;50.718;7.328;2022-12-07T02:54:32;42.67;;;26.90;;
37455;SDS011;23316;50.718;7.328;2022-12-07T02:57:00;42.03;;;25.08;;
37455;SDS011;23316;50.718;7.328;2022-12-07T02:59:42;39.67;;;26.38;;
37455;SDS011;23316;50.718;7.328;2022-12-07T03:02:23;50.25;;;28.73;;
37455;SDS011;23316;50.718;7.328;2022-12-07T03:04:58;45.70;;;27.45;;
37455;SDS011;23316;50.718;7.328;2022-12-07T03:07:42;45.30;;;27.65;;
37455;SDS011;23316;50.718;7.328;2022-12-07T03:10:19;41.45;;;26.60;;
37455;SDS011;23316;50.718;7.328;2022-12-07T03:12:54;39.20;;;25.67;;
37455;SDS011;23316;50.718;7.328;2022-12-07T03:15:31;37.70;;;24.80;;
37455;SDS011;23316;50.718;7.328;2022-12-07T03:18:00;38.55;;;25.15;;
37455;SDS011;23316;50.718;7.328;2022-12-07T03:20:31;37.60;;;24.77;;
37455;SDS011;23316;50.718;7.328;2022-12-07T03:23:02;39.10;;;24.45;;
37455;SDS011;23316;50.718;7.328;2022-12-07T03:25:32;45.38;;;25.40;;
37455;SDS011;23316;50.718;7.328;2022-12-07T03:28:02;40.95;;;25.55;;
37455;SDS011;23316;50.718;7.328;2022-12-07T03:30:34;35.17;;;23.17;;
37455;SDS011;23316;50.718;7.328;2022-12-07T03:33:09;38.67;;;24.10;;
37455;SDS011;23316;50.718;7.328;2022-12-07T03:35:40;37.72;;;24.77;;
37455;SDS011;23316;50.718;7.328;2022-12-07T03:38:14;39.60;;;24.77;;
37455;SDS011;23316;50.718;7.328;2022-12-07T03:40:44;41.53;;;27.30;;
37455;SDS011;23316;50.718;7.328;2022-12-07T03:43:16;39.75;;;26.05;;
37455;SDS011;23316;50.718;7.328;2022-12-07T03:45:47;44.75;;;25.30;;
37455;SDS011;23316;50.718;7.328;2022-12-07T03:48:27;36.80;;;24.48;;
37455;SDS011;23316;50.718;7.328;2022-12-07T03:51:00;43.70;;;26.58;;
37455;SDS011;23316;50.718;7.328;2022-12-07T03:56:01;38.20;;;24.52;;
37455;SDS011;23316;50.718;7.328;2022-12-07T03:58:29;38.00;;;25.20;;
37455;SDS011;23316;50.718;7.328;2022-12-07T04:00:59;41.50;;;25.70;;
37455;SDS011;23316;50.718;7.328;2022-12-07T04:03:26;45.53;;;26.60;;
37455;SDS011;23316;50.718;7.328;2022-12-07T04:05:53;41.60;;;26.40;;
37455;SDS011;23316;50.718;7.328;2022-12-07T04:08:21;39.97;;;25.17;;
37455;SDS011;23316;50.718;7.328;2022-12-07T04:10:48;37.97;;;25.55;;
37455;SDS011;23316;50.718;7.328;2022-12-07T04:13:15;44.50;;;25.25;;
37455;SDS011;23316;50.718;7.328;2022-12-07T04:15:43;37.90;;;24.30;;
37455;SDS011;23316;50.718;7.328;2022-12-07T04:18:11;40.20;;;24.85;;
37455;SDS011;23316;50.718;7.328;2022-12-07T04:20:38;43.45;;;26.10;;
37455;SDS011;23316;50.718;7.328;2022-12-07T04:23:06;50.42;;;26.95;;
37455;SDS011;23316;50.718;7.328;2022-12-07T04:25:33;37.28;;;24.75;;
37455;SDS011;23316;50.718;7.328;2022-12-07T04:28:01;37.80;;;25.83;;
37455;SDS011;23316;50.718;7.328;2022-12-07T04:30:28;37.05;;;24.23;;
37455;SDS011;23316;50.718;7.328;2022-12-07T04:32:55;36.67;;;22.30;;
37455;SDS011;23316;50.718;7.328;2022-12-07T04:35:24;40.90;;;25.63;;
37455;SDS011;23316;50.718;7.328;2022-12-07T04:37:51;42.83;;;25.10;;
37455;SDS011;23316;50.718;7.328;2022-12-07T04:40:18;44.42;;;26.92;;
37455;SDS011;23316;50.718;7.328;2022-12-07T04:42:45;35.55;;;23.70;;
37455;SDS011;23316;50.718;7.328;2022-12-07T04:45:13;40.38;;;23.60;;
37455;SDS011;23316;50.718;7.328;2022-12-07T04:47:40;42.45;;;25.75;;
37455;SDS011;23316;50.718;7.328;2022-12-07T04:50:09;37.55;;;24.83;;
37455;SDS011;23316;50.718;7.328;2022-12-07T04:52:38;42.90;;;26.27;;
37455;SDS011;23316;50.718;7.328;2022-12-07T04:55:05;47.20;;;28.38;;
37455;SDS011;23316;50.718;7.328;2022-12-07T04:57:33;47.88;;;28.05;;
37455;SDS011;23316;50.718;7.328;2022-12-07T05:00:00;45.83;;;28.13;;
37455;SDS011;23316;50.718;7.328;2022-12-07T05:02:28;45.50;;;27.15;;
37455;SDS011;23316;50.718;7.328;2022-12-07T05:04:55;46.03;;;26.75;;
37455;SDS011;23316;50.718;7.328;2022-12-07T05:07:22;45.03;;;25.63;;
37455;SDS011;23316;50.718;7.328;2022-12-07T05:09:51;42.58;;;26.63;;
37455;SDS011;23316;50.718;7.328;2022-12-07T05:12:18;44.50;;;27.08;;
37455;SDS011;23316;50.718;7.328;2022-12-07T05:14:45;44.90;;;25.58;;
37455;SDS011;23316;50.718;7.328;2022-12-07T05:17:12;29.95;;;20.42;;
37455;SDS011;23316;50.718;7.328;2022-12-07T05:19:39;31.15;;;20.75;;
37455;SDS011;23316;50.718;7.328;2022-12-07T05:22:07;29.95;;;21.35;;
37455;SDS011;23316;50.718;7.328;2022-12-07T05:24:35;34.08;;;20.90;;
37455;SDS011;23316;50.718;7.328;2022-12-07T05:27:03;32.55;;;19.80;;
37455;SDS011;23316;50.718;7.328;2022-12-07T05:29:30;33.35;;;19.67;;
37455;SDS011;23316;50.718;7.328;2022-12-07T05:31:58;31.73;;;20.17;;
37455;SDS011;23316;50.718;7.328;2022-12-07T05:34:25;35.13;;;21.52;;
37455;SDS011;23316;50.718;7.328;2022-12-07T05:36:52;31.38;;;21.60;;
37455;SDS011;23316;50.718;7.328;2022-12-07T05:39:20;36.40;;;24.67;;
37455;SDS011;23316;50.718;7.328;2022-12-07T05:41:47;46.45;;;26.45;;
37455;SDS011;23316;50.718;7.328;2022-12-07T05:44:33;44.05;;;27.58;;
37455;SDS011;23316;50.718;7.328;2022-12-07T05:47:00;39.67;;;25.90;;
37455;SDS011;23316;50.718;7.328;2022-12-07T05:49:27;42.70;;;26.63;;
37455;SDS011;23316;50.718;7.328;2022-12-07T05:51:55;47.22;;;27.23;;
37455;SDS011;23316;50.718;7.328;2022-12-07T05:54:22;48.10;;;29.52;;
37455;SDS011;23316;50.718;7.328;2022-12-07T05:56:49;48.38;;;29.33;;
37455;SDS011;23316;50.718;7.328;2022-12-07T05:59:17;46.47;;;27.35;;
37455;SDS011;23316;50.718;7.328;2022-12-07T06:01:51;46.33;;;26.95;;
37455;SDS011;23316;50.718;7.328;2022-12-07T06:04:19;46.83;;;27.17;;
37455;SDS011;23316;50.718;7.328;2022-12-07T06:06:47;48.78;;;28.30;;
37455;SDS011;23316;50.718;7.328;2022-12-07T06:09:14;46.83;;;29.25;;
37455;SDS011;23316;50.718;7.328;2022-12-07T06:11:41;48.78;;;27.13;;
37455;SDS011;23316;50.718;7.328;2022-12-07T06:14:26;37.95;;;22.80;;
37455;SDS011;23316;50.718;7.328;2022-12-07T06:16:55;36.38;;;22.52;;
37455;SDS011;23316;50.718;7.328;2022-12-07T06:19:22;46.92;;;24.80;;
37455;SDS011;23316;50.718;7.328;2022-12-07T06:21:50;41.92;;;24.33;;
37455;SDS011;23316;50.718;7.328;2022-12-07T06:24:17;44.95;;;26.58;;
37455;SDS011;23316;50.718;7.328;2022-12-07T06:26:45;40.05;;;23.50;;
37455;SDS011;23316;50.718;7.328;2022-12-07T06:29:12;46.85;;;26.60;;
37455;SDS011;23316;50.718;7.328;2022-12-07T06:31:40;41.35;;;24.30;;
37455;SDS011;23316;50.718;7.328;2022-12-07T06:34:10;38.15;;;23.35;;
37455;SDS011;23316;50.718;7.328;2022-12-07T06:36:39;47.15;;;25.80;;
37455;SDS011;23316;50.718;7.328;2022-12-07T06:39:07;39.85;;;24.27;;
37455;SDS011;23316;50.718;7.328;2022-12-07T06:41:35;41.67;;;23.80;;
37455;SDS011;23316;50.718;7.328;2022-12-07T06:44:03;35.15;;;22.33;;
37455;SDS011;23316;50.718;7.328;2022-12-07T06:46:30;36.83;;;21.58;;
37455;SDS011;23316;50.718;7.328;2022-12-07T06:48:58;28.17;;;17.58;;
37455;SDS011;23316;50.718;7.328;2022-12-07T06:51:26;28.23;;;17.10;;
37455;SDS011;23316;50.718;7.328;2022-12-07T06:53:54;25.23;;;15.25;;
37455;SDS011;23316;50.718;7.328;2022-12-07T06:56:22;24.55;;;14.20;;
37455;SDS011;23316;50.718;7.328;2022-12-07T06:58:49;23.67;;;14.07;;
37455;SDS011;23316;50.718;7.328;2022-12-07T07:01:17;22.52;;;13.65;;
37455;SDS011;23316;50.718;7.328;2022-12-07T07:03:45;26.15;;;14.30;;
37455;SDS011;23316;50.718;7.328;2022-12-07T07:06:12;23.83;;;14.45;;
37455;SDS011;23316;50.718;7.328;2022-12-07T07:08:42;24.17;;;14.65;;
37455;SDS011;23316;50.718;7.328;2022-12-07T07:11:09;29.10;;;14.95;;
37455;SDS011;23316;50.718;7.328;2022-12-07T07:13:37;24.00;;;14.13;;
37455;SDS011;23316;50.718;7.328;2022-12-07T07:16:05;29.55;;;17.77;;
37455;SDS011;23316;50.718;7.328;2022-12-07T07:18:33;35.90;;;21.02;;
37455;SDS011;23316;50.718;7.328;2022-12-07T07:21:00;35.78;;;21.10;;
37455;SDS011;23316;50.718;7.328;2022-12-07T07:23:28;38.10;;;21.48;;
37455;SDS011;23316;50.718;7.328;2022-12-07T07:25:56;42.67;;;23.67;;
37455;SDS011;23316;50.718;7.328;2022-12-07T07:28:23;45.67;;;24.48;;
37455;SDS011;23316;50.718;7.328;2022-12-07T07:30:51;41.55;;;23.60;;
37455;SDS011;23316;50.718;7.328;2022-12-07T07:33:19;38.42;;;21.45;;
37455;SDS011;23316;50.718;7.328;2022-12-07T07:35:46;34.78;;;21.95;;
37455;SDS011;23316;50.718;7.328;2022-12-07T07:38:13;40.85;;;25.35;;
37455;SDS011;23316;50.718;7.328;2022-12-07T07:40:40;44.17;;;24.35;;
37455;SDS011;23316;50.718;7.328;2022-12-07T07:43:09;42.20;;;22.92;;
37455;SDS011;23316;50.718;7.328;2022-12-07T07:45:36;32.78;;;20.25;;
37455;SDS011;23316;50.718;7.328;2022-12-07T07:48:03;35.40;;;21.90;;
37455;SDS011;23316;50.718;7.328;2022-12-07T07:50:31;34.25;;;20.77;;
37455;SDS011;23316;50.718;7.328;2022-12-07T07:52:58;45.33;;;23.92;;
37455;SDS011;23316;50.718;7.328;2022-12-07T07:55:25;36.75;;;21.02;;
37455;SDS011;23316;50.718;7.328;2022-12-07T07:57:53;35.97;;;20.98;;
37455;SDS011;23316;50.718;7.328;2022-12-07T08:00:22;34.13;;;19.85;;
37455;SDS011;23316;50.718;7.328;2022-12-07T08:02:50;45.53;;;23.13;;
37455;SDS011;23316;50.718;7.328;2022-12-07T08:05:17;36.50;;;20.45;;
37455;SDS011;23316;50.718;7.328;2022-12-07T08:07:44;41.63;;;21.67;;
37455;SDS011;23316;50.718;7.328;2022-12-07T08:10:12;35.15;;;21.42;;
37455;SDS011;23316;50.718;7.328;2022-12-07T08:12:40;33.67;;;20.02;;
37455;SDS011;23316;50.718;7.328;2022-12-07T08:15:24;32.42;;;18.83;;
37455;SDS011;23316;50.718;7.328;2022-12-07T08:17:52;46.55;;;21.27;;
37455;SDS011;23316;50.718;7.328;2022-12-07T08:20:19;31.25;;;19.30;;
37455;SDS011;23316;50.718;7.328;2022-12-07T08:22:46;35.70;;;20.05;;
37455;SDS011;23316;50.718;7.328;2022-12-07T08:25:14;32.92;;;18.67;;
37455;SDS011;23316;50.718;7.328;2022-12-07T08:27:41;35.00;;;20.52;;
37455;SDS011;23316;50.718;7.328;2022-12-07T08:30:09;32.85;;;19.60;;
37455;SDS011;23316;50.718;7.328;2022-12-07T08:32:38;36.05;;;19.67;;
37455;SDS011;23316;50.718;7.328;2022-12-07T08:35:05;34.67;;;18.75;;
37455;SDS011;23316;50.718;7.328;2022-12-07T08:37:33;32.85;;;19.60;;
37455;SDS011;23316;50.718;7.328;2022-12-07T08:40:00;37.85;;;20.55;;
37455;SDS011;23316;50.718;7.328;2022-12-07T08:42:27;32.00;;;20.20;;
37455;SDS011;23316;50.718;7.328;2022-12-07T08:45:03;36.58;;;21.05;;
37455;SDS011;23316;50.718;7.328;2022-12-07T08:47:32;37.95;;;21.45;;
37455;SDS011;23316;50.718;7.328;2022-12-07T08:50:02;35.10;;;20.08;;
37455;SDS011;23316;50.718;7.328;2022-12-07T08:52:32;36.03;;;20.30;;
37455;SDS011;23316;50.718;7.328;2022-12-07T08:55:01;36.55;;;18.52;;
37455;SDS011;23316;50.718;7.328;2022-12-07T08:57:30;29.30;;;17.92;;
37455;SDS011;23316;50.718;7.328;2022-12-07T09:00:01;26.90;;;16.65;;
37455;SDS011;23316;50.718;7.328;2022-12-07T09:02:29;28.38;;;16.83;;
37455;SDS011;23316;50.718;7.328;2022-12-07T09:05:01;30.08;;;17.20;;
37455;SDS011;23316;50.718;7.328;2022-12-07T09:07:29;35.30;;;17.58;;
37455;SDS011;23316;50.718;7.328;2022-12-07T09:09:58;32.30;;;17.35;;
37455;SDS011;23316;50.718;7.328;2022-12-07T09:12:25;32.13;;;18.17;;
37455;SDS011;23316;50.718;7.328;2022-12-07T09:14:53;26.27;;;17.10;;
37455;SDS011;23316;50.718;7.328;2022-12-07T09:17:20;30.65;;;16.23;;
37455;SDS011;23316;50.718;7.328;2022-12-07T09:19:47;27.17;;;15.57;;
37455;SDS011;23316;50.718;7.328;2022-12-07T09:22:16;26.60;;;16.05;;
37455;SDS011;23316;50.718;7.328;2022-12-07T09:24:43;33.10;;;16.90;;
37455;SDS011;23316;50.718;7.328;2022-12-07T09:27:11;33.00;;;17.10;;
37455;SDS011;23316;50.718;7.328;2022-12-07T09:29:38;31.58;;;16.75;;
37455;SDS011;23316;50.718;7.328;2022-12-07T09:32:05;29.08;;;17.10;;
37455;SDS011;23316;50.718;7.328;2022-12-07T09:34:33;33.35;;;17.20;;
37455;SDS011;23316;50.718;7.328;2022-12-07T09:37:00;32.70;;;18.13;;
37455;SDS011;23316;50.718;7.328;2022-12-07T09:39:29;34.00;;;17.33;;
37455;SDS011;23316;50.718;7.328;2022-12-07T09:41:57;31.80;;;17.15;;
37455;SDS011;23316;50.718;7.328;2022-12-07T09:44:25;33.63;;;16.58;;
37455;SDS011;23316;50.718;7.328;2022-12-07T09:46:54;32.47;;;16.55;;
37455;SDS011;23316;50.718;7.328;2022-12-07T09:49:22;31.67;;;16.83;;
37455;SDS011;23316;50.718;7.328;2022-12-07T09:51:59;29.98;;;15.95;;
37455;SDS011;23316;50.718;7.328;2022-12-07T09:54:29;25.45;;;14.07;;
37455;SDS011;23316;50.718;7.328;2022-12-07T09:56:58;34.08;;;15.95;;
37455;SDS011;23316;50.718;7.328;2022-12-07T09:59:26;31.13;;;16.00;;
37455;SDS011;23316;50.718;7.328;2022-12-07T10:01:53;28.27;;;15.45;;
37455;SDS011;23316;50.718;7.328;2022-12-07T10:04:21;32.28;;;16.55;;
37455;SDS011;23316;50.718;7.328;2022-12-07T10:06:50;35.42;;;17.85;;
37455;SDS011;23316;50.718;7.328;2022-12-07T10:09:18;37.95;;;17.60;;
37455;SDS011;23316;50.718;7.328;2022-12-07T10:12:02;28.42;;;15.50;;
37455;SDS011;23316;50.718;7.328;2022-12-07T10:14:33;29.17;;;15.82;;
37455;SDS011;23316;50.718;7.328;2022-12-07T10:17:02;28.48;;;15.32;;
37455;SDS011;23316;50.718;7.328;2022-12-07T10:22:34;27.25;;;15.43;;
37455;SDS011;23316;50.718;7.328;2022-12-07T10:25:07;36.20;;;16.75;;
37455;SDS011;23316;50.718;7.328;2022-12-07T10:27:37;29.90;;;16.08;;
37455;SDS011;23316;50.718;7.328;2022-12-07T10:30:07;31.60;;;16.08;;
37455;SDS011;23316;50.718;7.328;2022-12-07T10:32:41;29.85;;;17.58;;
37455;SDS011;23316;50.718;7.328;2022-12-07T10:35:19;33.15;;;17.55;;
37455;SDS011;23316;50.718;7.328;2022-12-07T10:37:49;34.63;;;15.77;;
37455;SDS011;23316;50.718;7.328;2022-12-07T10:40:31;31.48;;;15.13;;
37455;SDS011;23316;50.718;7.328;2022-12-07T10:43:02;30.85;;;15.63;;
37455;SDS011;23316;50.718;7.328;2022-12-07T10:48:38;30.15;;;15.43;;
37455;SDS011;23316;50.718;7.328;2022-12-07T10:51:15;27.60;;;15.88;;
37455;SDS011;23316;50.718;7.328;2022-12-07T10:53:58;32.35;;;14.77;;
37455;SDS011;23316;50.718;7.328;2022-12-07T10:56:43;30.02;;;14.88;;
37455;SDS011;23316;50.718;7.328;2022-12-07T10:59:41;27.33;;;15.00;;
37455;SDS011;23316;50.718;7.328;2022-12-07T11:02:24;29.40;;;14.95;;
37455;SDS011;23316;50.718;7.328;2022-12-07T11:05:01;28.30;;;16.02;;
37455;SDS011;23316;50.718;7.328;2022-12-07T11:07:38;24.42;;;13.55;;
37455;SDS011;23316;50.718;7.328;2022-12-07T11:10:15;25.52;;;13.77;;
37455;SDS011;23316;50.718;7.328;2022-12-07T11:12:56;24.60;;;14.40;;
37455;SDS011;23316;50.718;7.328;2022-12-07T11:15:38;29.48;;;12.80;;
37455;SDS011;23316;50.718;7.328;2022-12-07T11:18:19;21.00;;;12.43;;
37455;SDS011;23316;50.718;7.328;2022-12-07T11:20:51;26.80;;;12.80;;
37455;SDS011;23316;50.718;7.328;2022-12-07T11:23:25;30.17;;;12.88;;
37455;SDS011;23316;50.718;7.328;2022-12-07T11:26:04;30.52;;;13.15;;
37455;SDS011;23316;50.718;7.328;2022-12-07T11:28:42;25.25;;;12.30;;
37455;SDS011;23316;50.718;7.328;2022-12-07T11:31:28;20.95;;;12.35;;
37455;SDS011;23316;50.718;7.328;2022-12-07T11:34:02;18.67;;;10.73;;
37455;SDS011;23316;50.718;7.328;2022-12-07T11:36:37;24.25;;;11.45;;
37455;SDS011;23316;50.718;7.328;2022-12-07T11:39:15;26.77;;;11.50;;
37455;SDS011;23316;50.718;7.328;2022-12-07T11:41:50;20.85;;;10.43;;
37455;SDS011;23316;50.718;7.328;2022-12-07T11:44:24;20.58;;;10.55;;
37455;SDS011;23316;50.718;7.328;2022-12-07T11:47:00;20.30;;;9.35;;
37455;SDS011;23316;50.718;7.328;2022-12-07T11:49:37;20.23;;;8.77;;
37455;SDS011;23316;50.718;7.328;2022-12-07T11:52:11;17.02;;;9.07;;
37455;SDS011;23316;50.718;7.328;2022-12-07T11:54:44;16.17;;;8.43;;
37455;SDS011;23316;50.718;7.328;2022-12-07T11:57:15;21.02;;;9.00;;
37455;SDS011;23316;50.718;7.328;2022-12-07T11:59:47;19.65;;;8.65;;
37455;SDS011;23316;50.718;7.328;2022-12-07T12:02:21;18.08;;;9.02;;
37455;SDS011;23316;50.718;7.328;2022-12-07T12:04:54;19.70;;;8.45;;
37455;SDS011;23316;50.718;7.328;2022-12-07T12:07:26;18.52;;;9.05;;
37455;SDS011;23316;50.718;7.328;2022-12-07T12:09:56;19.92;;;9.13;;
37455;SDS011;23316;50.718;7.328;2022-12-07T12:12:36;19.38;;;7.90;;
37455;SDS011;23316;50.718;7.328;2022-12-07T12:15:23;19.10;;;7.45;;
37455;SDS011;23316;50.718;7.328;2022-12-07T12:18:17;18.70;;;7.18;;
37455;SDS011;23316;50.718;7.328;2022-12-07T12:20:55;14.50;;;6.10;;
37455;SDS011;23316;50.718;7.328;2022-12-07T12:23:27;21.88;;;6.90;;
37455;SDS011;23316;50.718;7.328;2022-12-07T12:26:02;14.75;;;6.28;;
37455;SDS011;23316;50.718;7.328;2022-12-07T12:28:35;13.43;;;6.35;;
37455;SDS011;23316;50.718;7.328;2022-12-07T12:31:10;11.23;;;5.57;;
37455;SDS011;23316;50.718;7.328;2022-12-07T12:33:43;15.38;;;5.70;;
37455;SDS011;23316;50.718;7.328;2022-12-07T12:36:19;23.92;;;6.25;;
37455;SDS011;23316;50.718;7.328;2022-12-07T12:38:50;16.13;;;6.50;;
37455;SDS011;23316;50.718;7.328;2022-12-07T12:47:54;13.13;;;3.65;;
37455;SDS011;23316;50.718;7.328;2022-12-07T12:50:24;6.28;;;1.67;;
37455;SDS011;23316;50.718;7.328;2022-12-07T12:58:46;15.85;;;3.15;;
37455;SDS011;23316;50.718;7.328;2022-12-07T13:10:21;12.30;;;4.20;;
37455;SDS011;23316;50.718;7.328;2022-12-07T13:12:55;11.20;;;3.83;;
37455;SDS011;23316;50.718;7.328;2022-12-07T13:15:34;12.70;;;4.68;;
37455;SDS011;23316;50.718;7.328;2022-12-07T13:18:04;14.38;;;5.05;;
37455;SDS011;23316;50.718;7.328;2022-12-07T13:20:51;15.52;;;6.05;;
37455;SDS011;23316;50.718;7.328;2022-12-07T13:23:24;21.27;;;7.38;;
37455;SDS011;23316;50.718;7.328;2022-12-07T13:25:55;25.70;;;8.43;;
37455;SDS011;23316;50.718;7.328;2022-12-07T13:28:32;15.75;;;7.25;;
37455;SDS011;23316;50.718;7.328;2022-12-07T13:31:09;19.85;;;8.10;;
37455;SDS011;23316;50.718;7.328;2022-12-07T13:33:56;19.10;;;7.40;;
37455;SDS011;23316;50.718;7.328;2022-12-07T13:36:23;20.40;;;8.15;;
37455;SDS011;23316;50.718;7.328;2022-12-07T13:38:54;17.17;;;7.32;;
37455;SDS011;23316;50.718;7.328;2022-12-07T13:41:23;19.73;;;7.07;;
37455;SDS011;23316;50.718;7.328;2022-12-07T13:43:52;13.60;;;6.90;;
37455;SDS011;23316;50.718;7.328;2022-12-07T13:46:26;16.42;;;7.63;;
37455;SDS011;23316;50.718;7.328;2022-12-07T13:49:02;17.77;;;7.32;;
37455;SDS011;23316;50.718;7.328;2022-12-07T13:51:33;14.43;;;7.00;;
37455;SDS011;23316;50.718;7.328;2022-12-07T13:54:09;19.23;;;7.15;;
37455;SDS011;23316;50.718;7.328;2022-12-07T13:56:38;15.55;;;7.20;;
37455;SDS011;23316;50.718;7.328;2022-12-07T13:59:07;22.17;;;7.35;;
37455;SDS011;23316;50.718;7.328;2022-12-07T14:01:40;19.80;;;7.57;;
37455;SDS011;23316;50.718;7.328;2022-12-07T14:07:01;18.70;;;7.97;;
37455;SDS011;23316;50.718;7.328;2022-12-07T14:09:54;16.50;;;6.38;;
37455;SDS011;23316;50.718;7.328;2022-12-07T14:12:24;14.50;;;6.20;;
37455;SDS011;23316;50.718;7.328;2022-12-07T14:14:52;13.45;;;6.22;;
37455;SDS011;23316;50.718;7.328;2022-12-07T14:17:22;16.70;;;6.80;;
37455;SDS011;23316;50.718;7.328;2022-12-07T14:19:51;16.52;;;7.10;;
37455;SDS011;23316;50.718;7.328;2022-12-07T14:25:15;11.05;;;5.50;;
37455;SDS011;23316;50.718;7.328;2022-12-07T14:27:52;16.73;;;6.45;;
37455;SDS011;23316;50.718;7.328;2022-12-07T14:30:23;15.30;;;6.47;;
37455;SDS011;23316;50.718;7.328;2022-12-07T14:32:53;11.48;;;5.97;;
37455;SDS011;23316;50.718;7.328;2022-12-07T14:35:21;15.00;;;6.53;;
37455;SDS011;23316;50.718;7.328;2022-12-07T14:37:50;16.25;;;6.38;;
37455;SDS011;23316;50.718;7.328;2022-12-07T14:40:23;13.15;;;6.35;;
37455;SDS011;23316;50.718;7.328;2022-12-07T14:42:53;13.85;;;5.97;;
37455;SDS011;23316;50.718;7.328;2022-12-07T14:45:22;13.93;;;6.32;;
37455;SDS011;23316;50.718;7.328;2022-12-07T14:47:50;16.95;;;7.30;;
37455;SDS011;23316;50.718;7.328;2022-12-07T14:50:18;13.02;;;6.57;;
37455;SDS011;23316;50.718;7.328;2022-12-07T14:52:48;12.82;;;6.57;;
37455;SDS011;23316;50.718;7.328;2022-12-07T14:55:20;11.60;;;6.03;;
37455;SDS011;23316;50.718;7.328;2022-12-07T14:57:52;12.55;;;5.85;;
37455;SDS011;23316;50.718;7.328;2022-12-07T15:00:20;16.90;;;6.18;;
37455;SDS011;23316;50.718;7.328;2022-12-07T15:02:49;12.43;;;5.30;;
37455;SDS011;23316;50.718;7.328;2022-12-07T15:05:17;16.50;;;5.20;;
37455;SDS011;23316;50.718;7.328;2022-12-07T15:07:45;12.55;;;4.57;;
37455;SDS011;23316;50.718;7.328;2022-12-07T15:10:15;13.27;;;4.32;;
37455;SDS011;23316;50.718;7.328;2022-12-07T15:12:45;7.80;;;3.33;;
37455;SDS011;23316;50.718;7.328;2022-12-07T15:15:13;7.13;;;3.42;;
37455;SDS011;23316;50.718;7.328;2022-12-07T15:17:40;9.07;;;3.55;;
37455;SDS011;23316;50.718;7.328;2022-12-07T15:20:09;7.18;;;3.70;;